createdAt,value
2018-06-25T00:00:11.453Z,14.54
2018-06-25T00:02:40.484Z,14.57
2018-06-25T00:05:08.901Z,14.55
2018-06-25T00:07:37.312Z,14.43
2018-06-25T00:10:05.750Z,14.39
2018-06-25T00:12:34.172Z,14.36
2018-06-25T00:15:02.582Z,14.36
2018-06-25T00:17:30.998Z,14.41
2018-06-25T00:19:59.435Z,14.34
2018-06-25T00:22:27.928Z,14.35
2018-06-25T00:24:56.310Z,14.35
2018-06-25T00:27:24.709Z,14.39
2018-06-25T00:29:54.091Z,14.37
2018-06-25T00:32:22.499Z,14.36
2018-06-25T00:34:51.071Z,14.40
2018-06-25T00:37:19.600Z,14.38
2018-06-25T00:39:48.015Z,14.38
2018-06-25T00:42:16.447Z,14.33
2018-06-25T00:44:44.879Z,14.36
2018-06-25T00:47:13.276Z,14.30
2018-06-25T00:49:41.735Z,14.35
2018-06-25T00:52:10.151Z,14.38
2018-06-25T00:54:39.060Z,14.38
2018-06-25T00:57:08.280Z,14.39
2018-06-25T00:59:49.686Z,14.40
2018-06-25T01:02:18.140Z,14.37
2018-06-25T01:04:47.372Z,14.37
2018-06-25T01:07:15.965Z,14.37
2018-06-25T01:09:44.381Z,14.45
2018-06-25T01:12:13.427Z,14.44
2018-06-25T01:14:43.258Z,14.42
2018-06-25T01:17:11.930Z,14.45
2018-06-25T01:19:40.447Z,14.38
2018-06-25T01:22:09.931Z,14.37
2018-06-25T01:24:38.808Z,14.38
2018-06-25T01:27:08.972Z,14.37
2018-06-25T01:29:38.942Z,14.40
2018-06-25T01:32:07.468Z,14.37
2018-06-25T01:34:35.912Z,14.40
2018-06-25T01:37:04.459Z,14.42
2018-06-25T01:39:33.525Z,14.38
2018-06-25T01:42:03.094Z,14.36
2018-06-25T01:44:31.593Z,14.38
2018-06-25T01:47:00.101Z,14.37
2018-06-25T01:49:28.622Z,14.33
2018-06-25T01:51:56.999Z,14.34
2018-06-25T01:54:25.408Z,14.27
2018-06-25T01:56:53.859Z,14.26
2018-06-25T01:59:22.299Z,14.23
2018-06-25T02:01:50.716Z,14.19
2018-06-25T02:04:19.161Z,14.19
2018-06-25T02:06:47.651Z,14.12
2018-06-25T02:09:16.089Z,14.13
2018-06-25T02:11:44.522Z,14.09
2018-06-25T02:14:12.989Z,14.14
2018-06-25T02:16:41.412Z,14.23
2018-06-25T02:19:09.832Z,14.27
2018-06-25T02:21:38.237Z,14.31
2018-06-25T02:24:06.645Z,14.31
2018-06-25T02:26:35.218Z,14.30
2018-06-25T02:29:03.972Z,14.29
2018-06-25T02:31:32.802Z,14.25
2018-06-25T02:34:01.222Z,14.27
2018-06-25T02:36:30.096Z,14.32
2018-06-25T02:38:58.477Z,14.38
2018-06-25T02:41:27.019Z,14.29
2018-06-25T02:43:55.420Z,14.29
2018-06-25T02:46:23.804Z,14.26
2018-06-25T02:48:52.231Z,14.19
2018-06-25T02:51:20.608Z,14.20
2018-06-25T02:53:49.017Z,14.23
2018-06-25T02:56:17.408Z,14.26
2018-06-25T02:58:45.862Z,14.24
2018-06-25T03:01:14.269Z,14.28
2018-06-25T03:03:43.461Z,14.30
2018-06-25T03:06:11.878Z,14.32
2018-06-25T03:08:40.260Z,14.31
2018-06-25T03:11:08.734Z,14.25
2018-06-25T03:13:37.084Z,14.21
2018-06-25T03:16:05.556Z,14.17
2018-06-25T03:18:34.270Z,14.13
2018-06-25T03:21:02.673Z,14.08
2018-06-25T03:23:31.102Z,14.05
2018-06-25T03:25:59.487Z,14.11
2018-06-25T03:28:27.880Z,14.07
2018-06-25T03:30:56.269Z,14.09
2018-06-25T03:33:24.674Z,14.15
2018-06-25T03:35:53.097Z,14.13
2018-06-25T03:38:21.522Z,14.03
2018-06-25T03:40:49.929Z,14.03
2018-06-25T03:43:18.389Z,14.07
2018-06-25T03:45:46.756Z,14.08
2018-06-25T03:48:15.216Z,13.98
2018-06-25T03:50:43.595Z,13.95
2018-06-25T03:53:11.987Z,13.93
2018-06-25T03:55:40.435Z,13.93
2018-06-25T03:58:08.811Z,13.96
2018-06-25T04:00:37.404Z,13.98
2018-06-25T04:03:05.993Z,13.94
2018-06-25T04:05:34.780Z,13.94
2018-06-25T04:08:03.192Z,14.00
2018-06-25T04:10:31.644Z,13.97
2018-06-25T04:13:00.069Z,13.91
2018-06-25T04:15:28.532Z,13.94
2018-06-25T04:17:56.959Z,13.98
2018-06-25T04:20:25.400Z,13.95
2018-06-25T04:22:53.803Z,13.97
2018-06-25T04:25:22.495Z,13.92
2018-06-25T04:27:51.023Z,13.95
2018-06-25T04:30:19.466Z,13.99
2018-06-25T04:32:47.923Z,14.03
2018-06-25T04:35:16.281Z,14.03
2018-06-25T04:37:45.113Z,14.07
2018-06-25T04:40:13.558Z,14.10
2018-06-25T04:42:41.930Z,14.12
2018-06-25T04:45:10.309Z,14.14
2018-06-25T04:47:38.807Z,14.17
2018-06-25T04:50:07.240Z,14.17
2018-06-25T04:52:35.763Z,14.24
2018-06-25T04:55:04.377Z,14.28
2018-06-25T04:57:32.961Z,14.29
2018-06-25T05:00:01.790Z,14.15
2018-06-25T05:02:30.230Z,14.24
2018-06-25T05:04:58.636Z,14.32
2018-06-25T05:07:27.046Z,14.38
2018-06-25T05:09:55.522Z,14.35
2018-06-25T05:12:23.904Z,14.33
2018-06-25T05:14:53.151Z,14.37
2018-06-25T05:17:22.164Z,14.34
2018-06-25T05:19:50.540Z,14.33
2018-06-25T05:22:19.013Z,14.29
2018-06-25T05:24:47.396Z,14.39
2018-06-25T05:27:17.273Z,14.43
2018-06-25T05:29:45.632Z,14.42
2018-06-25T05:32:14.982Z,14.41
2018-06-25T05:34:43.360Z,14.40
2018-06-25T05:37:11.779Z,14.34
2018-06-25T05:39:40.311Z,14.29
2018-06-25T05:42:13.711Z,14.28
2018-06-25T05:44:42.508Z,14.33
2018-06-25T05:47:10.889Z,14.30
2018-06-25T05:49:39.369Z,14.26
2018-06-25T05:52:07.818Z,14.31
2018-06-25T05:54:36.221Z,14.35
2018-06-25T05:57:04.662Z,14.36
2018-06-25T05:59:33.057Z,14.36
2018-06-25T06:02:01.442Z,14.32
2018-06-25T06:04:29.887Z,14.37
2018-06-25T06:06:59.346Z,14.46
2018-06-25T06:09:27.821Z,14.46
2018-06-25T06:11:56.368Z,14.44
2018-06-25T06:14:24.758Z,14.45
2018-06-25T06:16:53.520Z,14.50
2018-06-25T06:19:21.997Z,14.56
2018-06-25T06:21:50.519Z,14.61
2018-06-25T06:24:18.952Z,14.52
2018-06-25T06:26:47.387Z,14.53
2018-06-25T06:29:15.799Z,14.54
2018-06-25T06:31:44.225Z,14.54
2018-06-25T06:34:12.802Z,14.51
2018-06-25T06:36:41.339Z,14.58
2018-06-25T06:39:15.236Z,14.69
2018-06-25T06:41:45.176Z,14.77
2018-06-25T06:44:13.639Z,14.75
2018-06-25T06:46:42.361Z,14.78
2018-06-25T06:49:11.313Z,14.76
2018-06-25T06:51:39.914Z,14.70
2018-06-25T06:54:08.381Z,14.77
2018-06-25T06:56:36.823Z,14.74
2018-06-25T06:59:05.289Z,14.78
2018-06-25T07:01:33.863Z,14.83
2018-06-25T07:04:02.304Z,14.82
2018-06-25T07:06:30.728Z,14.77
2018-06-25T07:08:59.855Z,14.74
2018-06-25T07:11:28.484Z,14.72
2018-06-25T07:13:57.004Z,14.73
2018-06-25T07:16:25.469Z,14.78
2018-06-25T07:18:53.993Z,14.81
2018-06-25T07:21:22.422Z,14.83
2018-06-25T07:23:50.915Z,14.79
2018-06-25T07:26:22.602Z,14.77
2018-06-25T07:28:51.083Z,14.66
2018-06-25T07:31:19.513Z,14.62
2018-06-25T07:33:48.063Z,14.71
2018-06-25T07:36:17.091Z,14.71
2018-06-25T07:38:45.845Z,14.75
2018-06-25T07:41:16.140Z,14.83
2018-06-25T07:43:44.709Z,14.89
2018-06-25T07:46:13.511Z,14.90
2018-06-25T07:48:43.062Z,15.03
2018-06-25T07:51:11.565Z,15.12
2018-06-25T07:53:40.841Z,15.21
2018-06-25T07:56:09.213Z,15.28
2018-06-25T07:58:37.694Z,15.20
2018-06-25T08:01:06.206Z,15.17
2018-06-25T08:03:35.300Z,15.15
2018-06-25T08:06:03.761Z,15.15
2018-06-25T08:08:32.286Z,15.08
2018-06-25T08:11:00.980Z,15.12
2018-06-25T08:13:29.422Z,15.19
2018-06-25T08:15:57.881Z,15.21
2018-06-25T08:18:26.814Z,15.22
2018-06-25T08:20:55.261Z,15.37
2018-06-25T08:23:23.733Z,15.48
2018-06-25T08:25:53.095Z,15.48
2018-06-25T08:28:21.598Z,15.45
2018-06-25T08:30:50.041Z,15.48
2018-06-25T08:33:18.552Z,15.40
2018-06-25T08:35:47.101Z,15.44
2018-06-25T08:38:15.541Z,15.42
2018-06-25T08:40:44.063Z,15.38
2018-06-25T08:43:12.461Z,15.44
2018-06-25T08:45:40.922Z,15.46
2018-06-25T08:48:09.332Z,15.58
2018-06-25T08:50:37.781Z,15.82
2018-06-25T08:53:06.187Z,15.94
2018-06-25T08:55:34.649Z,16.00
2018-06-25T08:58:03.107Z,16.05
2018-06-25T09:00:31.558Z,15.95
2018-06-25T09:03:00.056Z,15.91
2018-06-25T09:05:28.502Z,15.83
2018-06-25T09:07:56.971Z,15.76
2018-06-25T09:10:25.409Z,15.79
2018-06-25T09:12:54.173Z,15.83
2018-06-25T09:15:22.670Z,15.92
2018-06-25T09:17:51.138Z,16.01
2018-06-25T09:20:19.571Z,16.06
2018-06-25T09:22:48.024Z,16.11
2018-06-25T09:25:16.447Z,16.20
2018-06-25T09:27:48.706Z,16.33
2018-06-25T09:30:18.358Z,16.34
2018-06-25T09:32:47.671Z,16.36
2018-06-25T09:35:16.370Z,16.45
2018-06-25T09:37:44.850Z,16.57
2018-06-25T09:40:13.503Z,16.71
2018-06-25T09:42:41.885Z,16.72
2018-06-25T09:45:11.637Z,16.66
2018-06-25T09:47:40.112Z,16.57
2018-06-25T09:50:08.618Z,16.45
2018-06-25T09:52:37.509Z,16.43
2018-06-25T09:55:06.012Z,16.45
2018-06-25T09:57:34.375Z,16.61
2018-06-25T10:00:02.847Z,16.72
2018-06-25T10:02:31.229Z,16.82
2018-06-25T10:04:59.673Z,16.78
2018-06-25T10:07:28.097Z,16.71
2018-06-25T10:09:57.202Z,16.68
2018-06-25T10:12:27.611Z,16.63
2018-06-25T10:14:56.023Z,16.52
2018-06-25T10:17:24.461Z,16.49
2018-06-25T10:19:52.945Z,16.52
2018-06-25T10:22:22.182Z,16.54
2018-06-25T10:24:50.926Z,16.62
2018-06-25T10:27:19.355Z,16.68
2018-06-25T10:29:47.893Z,16.64
2018-06-25T10:32:16.357Z,16.60
2018-06-25T10:34:44.917Z,16.53
2018-06-25T10:37:13.346Z,16.50
2018-06-25T10:39:41.821Z,16.47
2018-06-25T10:42:11.185Z,16.46
2018-06-25T10:44:39.589Z,16.49
2018-06-25T10:47:08.270Z,16.52
2018-06-25T10:49:37.738Z,16.55
2018-06-25T10:52:06.685Z,16.56
2018-06-25T10:54:35.172Z,16.60
2018-06-25T10:57:03.635Z,16.67
2018-06-25T10:59:32.138Z,16.72
2018-06-25T11:02:00.572Z,16.77
2018-06-25T11:04:29.023Z,16.84
2018-06-25T11:06:58.167Z,17.01
2018-06-25T11:09:26.792Z,17.19
2018-06-25T11:11:55.254Z,17.18
2018-06-25T11:14:25.526Z,17.12
2018-06-25T11:16:53.980Z,17.10
2018-06-25T11:19:22.417Z,17.07
2018-06-25T11:21:51.018Z,17.02
2018-06-25T11:24:19.446Z,17.07
2018-06-25T11:26:47.910Z,17.10
2018-06-25T11:29:16.360Z,17.17
2018-06-25T11:31:44.808Z,17.23
2018-06-25T11:34:13.353Z,17.29
2018-06-25T11:36:41.989Z,17.33
2018-06-25T11:39:11.579Z,17.37
2018-06-25T11:41:40.079Z,17.44
2018-06-25T11:44:08.647Z,17.44
2018-06-25T11:46:37.097Z,17.42
2018-06-25T11:49:07.732Z,17.39
2018-06-25T11:51:36.634Z,17.43
2018-06-25T11:54:05.130Z,17.56
2018-06-25T11:56:34.521Z,17.64
2018-06-25T11:59:03.217Z,17.64
2018-06-25T12:01:32.805Z,17.66
2018-06-25T12:04:01.224Z,17.62
2018-06-25T12:06:29.667Z,17.63
2018-06-25T12:08:58.137Z,17.72
2018-06-25T12:11:26.564Z,17.74
2018-06-25T12:13:55.065Z,17.69
2018-06-25T12:16:25.612Z,17.71
2018-06-25T12:18:54.222Z,17.72
2018-06-25T12:21:22.632Z,17.80
2018-06-25T12:23:51.149Z,17.92
2018-06-25T12:26:20.277Z,18.02
2018-06-25T12:28:49.288Z,18.09
2018-06-25T12:31:17.689Z,18.11
2018-06-25T12:33:46.123Z,18.10
2018-06-25T12:36:14.593Z,18.09
2018-06-25T12:38:42.995Z,18.14
2018-06-25T12:41:12.410Z,18.26
2018-06-25T12:43:40.846Z,18.36
2018-06-25T12:46:09.419Z,18.22
2018-06-25T12:48:38.251Z,18.28
2018-06-25T12:51:06.664Z,18.37
2018-06-25T12:53:35.072Z,18.62
2018-06-25T12:56:03.851Z,19.45
2018-06-25T12:58:32.746Z,19.86
2018-06-25T13:01:01.261Z,19.34
2018-06-25T13:03:29.726Z,18.82
2018-06-25T13:05:58.208Z,19.30
2018-06-25T13:08:26.649Z,20.05
2018-06-25T13:10:55.808Z,20.40
2018-06-25T13:13:24.291Z,20.93
2018-06-25T13:15:52.745Z,21.01
2018-06-25T13:18:21.376Z,21.31
2018-06-25T13:20:49.821Z,21.53
2018-06-25T13:23:18.256Z,21.77
2018-06-25T13:25:46.681Z,21.59
2018-06-25T13:28:15.091Z,20.62
2018-06-25T13:30:43.553Z,20.39
2018-06-25T13:33:12.097Z,20.20
2018-06-25T13:35:40.487Z,19.92
2018-06-25T13:38:09.375Z,19.52
2018-06-25T13:40:37.780Z,19.32
2018-06-25T13:43:06.241Z,19.43
2018-06-25T13:45:34.735Z,19.64
2018-06-25T13:48:03.141Z,20.37
2018-06-25T13:50:31.609Z,20.93
2018-06-25T13:53:00.052Z,21.44
2018-06-25T13:55:28.512Z,21.06
2018-06-25T13:57:57.101Z,20.96
2018-06-25T14:00:25.563Z,21.31
2018-06-25T14:02:53.967Z,21.49
2018-06-25T14:05:22.368Z,21.44
2018-06-25T14:07:50.822Z,21.58
2018-06-25T14:10:19.297Z,21.53
2018-06-25T14:12:47.799Z,21.25
2018-06-25T14:15:16.277Z,20.93
2018-06-25T14:17:44.771Z,20.98
2018-06-25T14:20:13.368Z,21.42
2018-06-25T14:22:42.083Z,21.36
2018-06-25T14:25:11.457Z,20.98
2018-06-25T14:27:45.317Z,21.39
2018-06-25T14:30:19.128Z,21.35
2018-06-25T14:32:54.421Z,21.41
2018-06-25T14:35:22.864Z,21.65
2018-06-25T14:37:51.356Z,21.66
2018-06-25T14:40:19.795Z,21.13
2018-06-25T14:42:48.266Z,20.65
2018-06-25T14:45:16.666Z,20.26
2018-06-25T14:47:45.069Z,20.11
2018-06-25T14:50:13.532Z,20.16
2018-06-25T14:52:41.957Z,20.65
2018-06-25T14:55:10.418Z,20.99
2018-06-25T14:57:38.868Z,21.07
2018-06-25T15:00:07.263Z,20.99
2018-06-25T15:02:35.848Z,20.73
2018-06-25T15:05:04.287Z,20.65
2018-06-25T15:07:32.792Z,20.46
2018-06-25T15:10:01.219Z,20.23
2018-06-25T15:12:30.363Z,20.53
2018-06-25T15:14:59.023Z,20.74
2018-06-25T15:17:27.463Z,21.02
2018-06-25T15:19:56.158Z,21.17
2018-06-25T15:22:24.668Z,20.94
2018-06-25T15:24:53.242Z,20.90
2018-06-25T15:27:21.676Z,20.84
2018-06-25T15:29:51.246Z,20.69
2018-06-25T15:32:20.250Z,20.62
2018-06-25T15:34:49.807Z,20.62
2018-06-25T15:37:18.186Z,20.59
2018-06-25T15:39:46.600Z,20.94
2018-06-25T15:42:15.045Z,21.24
2018-06-25T15:44:43.628Z,21.25
2018-06-25T15:47:12.015Z,21.27
2018-06-25T15:49:40.732Z,21.35
2018-06-25T15:52:09.148Z,21.56
2018-06-25T15:54:37.591Z,21.79
2018-06-25T15:57:06.055Z,21.80
2018-06-25T15:59:34.483Z,21.72
2018-06-25T16:02:03.023Z,21.91
2018-06-25T16:04:32.128Z,21.82
2018-06-25T16:07:01.223Z,21.79
2018-06-25T16:09:29.456Z,21.86
2018-06-25T16:11:57.900Z,21.98
2018-06-25T16:14:26.672Z,21.89
2018-06-25T16:16:55.212Z,21.92
2018-06-25T16:19:23.691Z,21.84
2018-06-25T16:21:52.350Z,21.99
2018-06-25T16:24:20.863Z,22.20
2018-06-25T16:26:49.261Z,21.81
2018-06-25T16:29:17.680Z,22.05
2018-06-25T16:31:46.182Z,21.82
2018-06-25T16:34:14.685Z,22.05
2018-06-25T16:36:43.099Z,22.00
2018-06-25T16:39:12.730Z,22.01
2018-06-25T16:41:41.472Z,22.01
2018-06-25T16:44:09.968Z,21.95
2018-06-25T16:46:39.875Z,21.86
2018-06-25T16:49:08.370Z,22.07
2018-06-25T16:51:36.788Z,22.26
2018-06-25T16:54:05.355Z,22.25
2018-06-25T16:56:33.805Z,22.20
2018-06-25T16:59:02.276Z,22.02
2018-06-25T17:01:31.504Z,21.88
2018-06-25T17:04:00.039Z,21.83
2018-06-25T17:06:29.120Z,21.87
2018-06-25T17:08:57.869Z,21.75
2018-06-25T17:11:26.334Z,21.95
2018-06-25T17:13:57.147Z,22.05
2018-06-25T17:16:25.643Z,21.99
2018-06-25T17:18:54.028Z,21.78
2018-06-25T17:21:22.467Z,21.95
2018-06-25T17:23:50.995Z,21.95
2018-06-25T17:26:19.439Z,21.99
2018-06-25T17:28:47.936Z,22.23
2018-06-25T17:31:16.343Z,22.13
2018-06-25T17:33:45.832Z,21.96
2018-06-25T17:36:14.311Z,22.03
2018-06-25T17:38:42.783Z,22.20
2018-06-25T17:41:11.220Z,22.24
2018-06-25T17:43:39.650Z,22.28
2018-06-25T17:46:08.507Z,22.36
2018-06-25T17:48:36.947Z,22.21
2018-06-25T17:51:05.982Z,22.20
2018-06-25T17:53:34.429Z,22.09
2018-06-25T17:56:04.080Z,22.05
2018-06-25T17:58:32.561Z,21.99
2018-06-25T18:01:01.293Z,21.98
2018-06-25T18:03:29.720Z,21.96
2018-06-25T18:05:58.110Z,21.99
2018-06-25T18:08:26.508Z,21.84
2018-06-25T18:10:54.927Z,21.85
2018-06-25T18:13:23.340Z,21.83
2018-06-25T18:15:51.824Z,21.73
2018-06-25T18:18:20.273Z,21.67
2018-06-25T18:20:49.316Z,21.60
2018-06-25T18:23:17.598Z,21.59
2018-06-25T18:25:46.025Z,21.51
2018-06-25T18:28:14.462Z,21.44
2018-06-25T18:30:43.001Z,21.46
2018-06-25T18:33:11.420Z,21.39
2018-06-25T18:35:39.836Z,21.31
2018-06-25T18:38:08.348Z,21.29
2018-06-25T18:40:36.760Z,21.23
2018-06-25T18:43:05.409Z,21.21
2018-06-25T18:45:33.996Z,21.20
2018-06-25T18:48:02.541Z,21.14
2018-06-25T18:50:31.008Z,21.10
2018-06-25T18:52:59.459Z,21.08
2018-06-25T18:55:28.901Z,21.05
2018-06-25T18:57:57.424Z,21.05
2018-06-25T19:00:25.846Z,20.91
2018-06-25T19:02:54.295Z,20.87
2018-06-25T19:05:22.791Z,20.83
2018-06-25T19:07:51.793Z,20.76
2018-06-25T19:10:20.204Z,20.65
2018-06-25T19:12:48.642Z,20.60
2018-06-25T19:15:17.100Z,20.56
2018-06-25T19:17:45.583Z,20.56
2018-06-25T19:20:14.062Z,20.52
2018-06-25T19:22:42.522Z,20.50
2018-06-25T19:25:10.956Z,20.46
2018-06-25T19:27:39.361Z,20.29
2018-06-25T19:30:07.918Z,20.22
2018-06-25T19:32:36.405Z,20.16
2018-06-25T19:35:04.937Z,20.17
2018-06-25T19:37:33.352Z,20.08
2018-06-25T19:40:01.821Z,20.04
2018-06-25T19:42:30.355Z,20.06
2018-06-25T19:44:58.783Z,19.91
2018-06-25T19:47:27.245Z,19.88
2018-06-25T19:49:55.722Z,19.78
2018-06-25T19:52:24.176Z,19.78
2018-06-25T19:54:52.628Z,19.74
2018-06-25T19:57:21.349Z,19.74
2018-06-25T19:59:49.792Z,19.73
2018-06-25T20:02:18.383Z,19.71
2018-06-25T20:04:47.512Z,19.75
2018-06-25T20:07:15.937Z,19.75
2018-06-25T20:09:44.395Z,19.72
2018-06-25T20:12:13.246Z,19.66
2018-06-25T20:14:41.806Z,19.61
2018-06-25T20:17:10.695Z,19.57
2018-06-25T20:19:39.382Z,19.52
2018-06-25T20:22:09.034Z,19.49
2018-06-25T20:24:38.384Z,19.45
2018-06-25T20:27:07.453Z,19.42
2018-06-25T20:29:37.890Z,19.36
2018-06-25T20:32:07.544Z,19.29
2018-06-25T20:34:36.354Z,19.21
2018-06-25T20:37:04.846Z,19.14
2018-06-25T20:39:33.383Z,19.02
2018-06-25T20:42:01.781Z,18.82
2018-06-25T20:44:30.460Z,18.72
2018-06-25T20:46:59.604Z,18.60
2018-06-25T20:49:28.018Z,18.62
2018-06-25T20:51:56.793Z,18.61
2018-06-25T20:54:25.539Z,18.49
2018-06-25T20:56:53.968Z,18.59
2018-06-25T20:59:22.733Z,18.50
2018-06-25T21:01:51.998Z,18.45
2018-06-25T21:04:20.424Z,18.38
2018-06-25T21:06:48.895Z,18.36
2018-06-25T21:09:17.418Z,18.29
2018-06-25T21:11:45.857Z,18.23
2018-06-25T21:14:15.091Z,18.21
2018-06-25T21:16:44.177Z,18.14
2018-06-25T21:19:12.641Z,18.00
2018-06-25T21:21:41.180Z,17.90
2018-06-25T21:24:09.602Z,17.88
2018-06-25T21:26:38.311Z,17.87
2018-06-25T21:29:06.847Z,17.82
2018-06-25T21:31:35.347Z,17.70
2018-06-25T21:34:03.733Z,17.60
2018-06-25T21:36:32.162Z,17.53
2018-06-25T21:39:00.622Z,17.53
2018-06-25T21:41:29.500Z,17.46
2018-06-25T21:43:57.988Z,17.41
2018-06-25T21:46:26.430Z,17.37
2018-06-25T21:48:54.834Z,17.27
2018-06-25T21:51:23.353Z,17.23
2018-06-25T21:53:53.157Z,17.20
2018-06-25T21:56:21.619Z,17.24
2018-06-25T21:58:50.103Z,17.18
2018-06-25T22:01:19.261Z,17.16
2018-06-25T22:03:47.706Z,17.16
2018-06-25T22:06:16.181Z,17.18
2018-06-25T22:08:45.126Z,17.02
2018-06-25T22:11:14.166Z,17.01
2018-06-25T22:13:42.570Z,17.01
2018-06-25T22:16:10.954Z,17.06
2018-06-25T22:18:39.429Z,17.03
2018-06-25T22:21:07.968Z,17.00
2018-06-25T22:23:36.630Z,16.97
2018-06-25T22:26:05.717Z,16.92
2018-06-25T22:28:34.729Z,16.89
2018-06-25T22:31:03.922Z,16.87
2018-06-25T22:33:32.652Z,16.85
2018-06-25T22:36:01.202Z,16.78
2018-06-25T22:38:29.741Z,16.79
2018-06-25T22:40:58.157Z,16.78
2018-06-25T22:43:26.572Z,16.84
2018-06-25T22:45:55.989Z,16.85
2018-06-25T22:48:24.366Z,16.85
2018-06-25T22:50:52.830Z,16.90
2018-06-25T22:53:21.208Z,16.82
2018-06-25T22:55:49.649Z,16.83
2018-06-25T22:58:18.101Z,16.84
2018-06-25T23:00:46.509Z,16.84
2018-06-25T23:03:15.092Z,16.82
2018-06-25T23:05:43.975Z,16.80
2018-06-25T23:08:12.446Z,16.77
2018-06-25T23:10:41.401Z,16.72
2018-06-25T23:13:09.887Z,16.66
2018-06-25T23:15:39.271Z,16.60
2018-06-25T23:18:07.882Z,16.33
2018-06-25T23:20:36.304Z,16.44
2018-06-25T23:23:04.729Z,16.43
2018-06-25T23:25:33.985Z,16.38
2018-06-25T23:28:02.449Z,16.34
2018-06-25T23:30:30.889Z,16.37
2018-06-25T23:32:59.264Z,16.39
2018-06-25T23:35:27.689Z,16.41
2018-06-25T23:37:56.105Z,16.39
2018-06-25T23:40:24.536Z,16.38
2018-06-25T23:42:53.035Z,16.40
2018-06-25T23:45:21.380Z,16.39
2018-06-25T23:47:49.755Z,16.35
2018-06-25T23:50:18.173Z,16.34
2018-06-25T23:52:46.587Z,16.28
2018-06-25T23:55:15.218Z,16.18
2018-06-25T23:57:45.188Z,16.05
